createdAt,value
2019-03-24T00:00:04.824Z,151924.97
2019-03-24T00:02:33.396Z,151948.56
2019-03-24T00:05:01.891Z,151940.72
2019-03-24T00:07:30.412Z,151923.66
2019-03-24T00:09:58.895Z,151879.11
2019-03-24T00:12:27.396Z,151820.11
2019-03-24T00:14:55.904Z,151822.72
2019-03-24T00:17:24.490Z,151839.78
2019-03-24T00:19:52.947Z,151812.23
2019-03-24T00:22:21.422Z,151817.50
2019-03-24T00:24:49.948Z,151793.88
2019-03-24T00:27:18.437Z,151807.02
2019-03-24T00:29:46.955Z,151767.69
2019-03-24T00:32:15.439Z,151775.56
2019-03-24T00:34:43.935Z,151775.56
2019-03-24T00:37:12.417Z,151766.39
2019-03-24T00:39:40.918Z,151770.30
2019-03-24T00:42:09.382Z,151730.98
2019-03-24T00:44:37.894Z,151763.73
2019-03-24T00:47:06.442Z,151751.94
2019-03-24T00:49:35.005Z,151744.12
2019-03-24T00:52:04.621Z,151758.52
2019-03-24T00:54:33.105Z,151741.47
2019-03-24T00:57:01.592Z,151702.09
2019-03-24T00:59:30.133Z,151724.47
2019-03-24T01:01:58.628Z,151685.09
2019-03-24T01:04:27.142Z,151696.88
2019-03-24T01:06:55.622Z,151699.50
2019-03-24T01:09:24.301Z,151687.70
2019-03-24T01:11:52.771Z,151681.14
2019-03-24T01:14:21.282Z,151670.66
2019-03-24T01:16:49.761Z,151668.06
2019-03-24T01:19:18.241Z,151696.88
2019-03-24T01:21:46.879Z,151689.02
2019-03-24T01:24:15.383Z,151661.53
2019-03-24T01:26:43.864Z,151652.36
2019-03-24T01:29:12.353Z,151665.44
2019-03-24T01:31:40.856Z,151641.88
2019-03-24T01:34:09.357Z,151643.19
2019-03-24T01:36:37.878Z,151623.53
2019-03-24T01:39:07.827Z,151631.41
2019-03-24T01:41:36.313Z,151602.58
2019-03-24T01:44:05.386Z,151565.89
2019-03-24T01:46:33.860Z,151584.23
2019-03-24T01:49:02.367Z,151558.02
2019-03-24T01:51:30.854Z,151571.16
2019-03-24T01:53:59.362Z,151555.41
2019-03-24T01:56:27.818Z,151579.02
2019-03-24T01:58:56.346Z,151552.81
2019-03-24T02:01:24.997Z,151542.33
2019-03-24T02:03:53.482Z,151524.00
2019-03-24T02:06:21.975Z,151524.00
2019-03-24T02:08:50.468Z,151499.14
2019-03-24T02:11:19.006Z,151499.14
2019-03-24T02:13:47.460Z,151463.77
2019-03-24T02:16:15.970Z,151474.23
2019-03-24T02:18:44.442Z,151462.45
2019-03-24T02:21:13.027Z,151476.89
2019-03-24T02:23:41.511Z,151455.94
2019-03-24T02:26:10.017Z,151435.00
2019-03-24T02:28:38.493Z,151402.25
2019-03-24T02:31:06.999Z,151389.17
2019-03-24T02:33:35.535Z,151389.17
2019-03-24T02:36:04.031Z,151387.86
2019-03-24T02:38:32.545Z,151376.09
2019-03-24T02:41:01.061Z,151386.56
2019-03-24T02:43:29.533Z,151378.70
2019-03-24T02:45:58.055Z,151361.67
2019-03-24T02:48:26.552Z,151348.59
2019-03-24T02:50:55.062Z,151328.97
2019-03-24T02:53:23.544Z,151319.80
2019-03-24T02:55:52.043Z,151332.92
2019-03-24T02:58:20.514Z,151311.98
2019-03-24T03:00:49.032Z,151330.27
2019-03-24T03:03:17.465Z,151332.92
2019-03-24T03:05:45.955Z,151326.36
2019-03-24T03:08:14.432Z,151346.00
2019-03-24T03:10:42.928Z,151318.50
2019-03-24T03:13:11.393Z,151327.66
2019-03-24T03:15:39.893Z,151318.50
2019-03-24T03:18:08.356Z,151311.98
2019-03-24T03:20:36.871Z,151293.66
2019-03-24T03:23:05.319Z,151259.66
2019-03-24T03:25:33.825Z,151259.66
2019-03-24T03:28:02.383Z,151224.31
2019-03-24T03:30:30.868Z,151229.58
2019-03-24T03:32:59.334Z,151258.31
2019-03-24T03:35:27.838Z,151262.27
2019-03-24T03:37:56.351Z,151258.31
2019-03-24T03:40:25.486Z,151234.78
2019-03-24T03:42:53.954Z,151249.20
2019-03-24T03:45:27.365Z,151251.80
2019-03-24T03:47:56.488Z,151191.63
2019-03-24T03:50:24.967Z,151206.00
2019-03-24T03:52:54.964Z,151202.09
2019-03-24T03:55:23.463Z,151230.88
2019-03-24T03:57:52.298Z,151253.09
2019-03-24T04:00:23.833Z,151241.34
2019-03-24T04:02:52.325Z,151219.11
2019-03-24T04:05:20.794Z,151225.62
2019-03-24T04:07:49.285Z,151232.17
2019-03-24T04:10:17.775Z,151236.08
2019-03-24T04:12:46.280Z,151233.47
2019-03-24T04:15:14.764Z,151225.62
2019-03-24T04:17:43.256Z,151220.41
2019-03-24T04:20:11.818Z,151200.78
2019-03-24T04:22:40.422Z,151198.19
2019-03-24T04:25:08.969Z,151165.45
2019-03-24T04:27:37.487Z,151128.86
2019-03-24T04:30:07.691Z,151143.22
2019-03-24T04:32:36.208Z,151132.77
2019-03-24T04:35:07.008Z,151121.00
2019-03-24T04:37:35.506Z,151102.69
2019-03-24T04:40:05.918Z,151097.48
2019-03-24T04:42:34.425Z,151093.53
2019-03-24T04:45:02.948Z,151066.06
2019-03-24T04:47:31.421Z,151069.97
2019-03-24T04:49:59.956Z,151081.78
2019-03-24T04:52:28.445Z,151097.48
2019-03-24T04:54:56.927Z,151097.48
2019-03-24T04:57:25.441Z,151101.39
2019-03-24T04:59:53.891Z,151080.47
2019-03-24T05:02:22.403Z,151060.81
2019-03-24T05:04:50.876Z,151050.34
2019-03-24T05:07:19.380Z,151066.06
2019-03-24T05:09:47.871Z,151060.81
2019-03-24T05:12:16.484Z,151079.17
2019-03-24T05:14:44.978Z,151073.92
2019-03-24T05:17:13.482Z,151042.50
2019-03-24T05:19:41.960Z,151045.16
2019-03-24T05:22:10.440Z,151024.23
2019-03-24T05:24:38.927Z,151026.84
2019-03-24T05:27:07.406Z,151047.75
2019-03-24T05:29:35.906Z,151076.56
2019-03-24T05:32:04.407Z,151073.92
2019-03-24T05:34:32.845Z,151081.78
2019-03-24T05:37:01.337Z,151089.62
2019-03-24T05:39:29.813Z,151100.09
2019-03-24T05:41:58.287Z,151111.84
2019-03-24T05:44:26.772Z,151118.41
2019-03-24T05:46:55.285Z,151119.70
2019-03-24T05:49:23.788Z,151113.16
2019-03-24T05:51:52.284Z,151114.45
2019-03-24T05:54:20.768Z,151115.80
2019-03-24T05:56:49.239Z,151097.48
2019-03-24T05:59:17.725Z,151100.09
2019-03-24T06:01:46.204Z,151092.23
2019-03-24T06:04:14.691Z,151123.61
2019-03-24T06:06:43.173Z,151118.41
2019-03-24T06:09:11.679Z,151162.84
2019-03-24T06:11:40.154Z,151182.47
2019-03-24T06:14:08.647Z,151203.39
2019-03-24T06:16:38.032Z,151238.73
2019-03-24T06:19:06.599Z,151245.25
2019-03-24T06:21:35.071Z,151270.12
2019-03-24T06:24:03.564Z,151266.17
2019-03-24T06:26:32.035Z,151281.89
2019-03-24T06:29:00.527Z,151335.53
2019-03-24T06:31:28.996Z,151389.17
2019-03-24T06:33:57.509Z,151479.50
2019-03-24T06:36:25.975Z,151555.41
2019-03-24T06:38:54.518Z,151637.92
2019-03-24T06:41:22.975Z,151717.89
2019-03-24T06:43:51.459Z,151772.91
2019-03-24T06:46:22.733Z,151789.97
2019-03-24T06:48:51.234Z,151818.80
2019-03-24T06:51:19.716Z,151830.59
2019-03-24T06:53:48.236Z,151872.53
2019-03-24T06:56:16.717Z,151919.75
2019-03-24T06:58:45.218Z,151948.56
2019-03-24T07:01:13.691Z,152004.97
2019-03-24T07:03:42.183Z,152061.34
2019-03-24T07:06:10.651Z,151901.37
2019-03-24T07:08:39.138Z,151935.45
2019-03-24T07:11:13.395Z,152011.48
2019-03-24T07:13:37.837Z,152063.94
2019-03-24T07:16:06.315Z,152001.00
2019-03-24T07:18:34.817Z,152048.23
2019-03-24T07:21:03.284Z,151935.45
2019-03-24T07:23:31.758Z,151981.33
2019-03-24T07:26:00.240Z,152031.17
2019-03-24T07:28:28.727Z,152037.75
2019-03-24T07:30:57.218Z,152062.64
2019-03-24T07:33:25.687Z,152056.12
2019-03-24T07:35:54.213Z,152054.81
2019-03-24T07:38:22.693Z,152115.11
2019-03-24T07:40:51.244Z,152134.80
2019-03-24T07:43:19.756Z,152271.36
2019-03-24T07:45:48.238Z,152355.38
2019-03-24T07:48:19.396Z,152439.41
2019-03-24T07:50:47.214Z,152554.97
2019-03-24T07:53:15.781Z,152557.59
2019-03-24T07:55:44.311Z,152618.09
2019-03-24T07:58:12.795Z,152662.75
2019-03-24T08:00:41.299Z,152690.38
2019-03-24T08:03:10.145Z,152650.94
2019-03-24T08:05:38.659Z,152778.47
2019-03-24T08:08:07.167Z,152717.98
2019-03-24T08:10:35.678Z,152810.02
2019-03-24T08:13:04.306Z,152781.08
2019-03-24T08:15:32.820Z,152739.02
2019-03-24T08:18:01.373Z,152831.05
2019-03-24T08:20:29.885Z,152837.59
2019-03-24T08:22:58.398Z,152873.13
2019-03-24T08:25:26.889Z,152844.19
2019-03-24T08:27:55.366Z,152778.47
2019-03-24T08:30:31.885Z,152912.59
2019-03-24T08:33:00.370Z,152942.80
2019-03-24T08:35:28.949Z,152986.31
2019-03-24T08:37:57.436Z,152988.92
2019-03-24T08:40:25.996Z,152982.33
2019-03-24T08:42:54.506Z,152933.64
2019-03-24T08:45:27.498Z,153007.34
2019-03-24T08:47:57.128Z,153020.50
2019-03-24T08:50:26.193Z,153052.06
2019-03-24T08:52:54.751Z,153065.22
2019-03-24T08:55:23.309Z,153102.08
2019-03-24T08:57:51.793Z,153107.31
2019-03-24T09:00:30.200Z,153136.28
2019-03-24T09:02:50.599Z,153229.75
2019-03-24T09:05:19.128Z,153202.09
2019-03-24T09:07:47.637Z,153117.84
2019-03-24T09:10:16.298Z,153175.78
2019-03-24T09:12:44.775Z,153107.31
2019-03-24T09:15:13.293Z,153191.56
2019-03-24T09:17:41.875Z,153211.31
2019-03-24T09:20:10.874Z,153323.28
2019-03-24T09:22:39.365Z,153328.58
2019-03-24T09:25:08.296Z,153470.81
2019-03-24T09:27:36.804Z,153541.97
2019-03-24T09:30:08.175Z,153594.72
2019-03-24T09:32:36.681Z,153526.19
2019-03-24T09:35:06.579Z,153680.45
2019-03-24T09:37:35.083Z,153652.75
2019-03-24T09:40:04.262Z,153792.50
2019-03-24T09:42:32.789Z,153816.27
2019-03-24T09:45:01.290Z,153800.41
2019-03-24T09:47:29.795Z,154193.78
2019-03-24T09:49:58.274Z,154230.72
2019-03-24T09:52:26.779Z,154502.95
2019-03-24T09:54:55.261Z,154662.94
2019-03-24T09:57:23.767Z,154665.56
2019-03-24T09:59:52.352Z,155074.45
2019-03-24T10:02:20.806Z,155413.56
2019-03-24T10:04:49.286Z,155122.13
2019-03-24T10:07:17.785Z,155584.56
2019-03-24T10:09:46.283Z,155562.03
2019-03-24T10:12:14.832Z,156026.44
2019-03-24T10:14:43.311Z,155710.56
2019-03-24T10:17:11.811Z,155436.08
2019-03-24T10:19:40.283Z,155807.41
2019-03-24T10:22:08.771Z,155670.83
2019-03-24T10:24:37.244Z,155895.00
2019-03-24T10:27:05.733Z,155755.69
2019-03-24T10:29:34.257Z,155694.67
2019-03-24T10:32:02.754Z,155527.59
2019-03-24T10:34:31.262Z,155516.98
2019-03-24T10:36:59.718Z,155477.22
2019-03-24T10:39:28.228Z,154912.97
2019-03-24T10:41:56.773Z,154775.34
2019-03-24T10:44:25.256Z,154685.41
2019-03-24T10:46:53.736Z,154829.56
2019-03-24T10:49:25.162Z,154776.66
2019-03-24T10:51:52.449Z,154783.30
2019-03-24T10:54:20.975Z,154856.09
2019-03-24T10:56:49.455Z,154561.08
2019-03-24T10:59:17.958Z,154611.38
2019-03-24T11:01:46.439Z,154689.41
2019-03-24T11:04:15.961Z,154707.87
2019-03-24T11:06:45.385Z,154562.39
2019-03-24T11:09:13.889Z,154460.66
2019-03-24T11:11:42.523Z,154209.59
2019-03-24T11:14:11.022Z,154067.00
2019-03-24T11:16:39.545Z,154077.56
2019-03-24T11:19:08.038Z,153824.14
2019-03-24T11:21:36.522Z,154045.88
2019-03-24T11:24:05.040Z,153750.30
2019-03-24T11:26:34.508Z,153623.73
2019-03-24T11:29:03.023Z,153708.11
2019-03-24T11:31:31.501Z,153664.61
2019-03-24T11:34:00.020Z,153541.97
2019-03-24T11:36:28.514Z,153600.03
2019-03-24T11:38:59.107Z,153435.25
2019-03-24T11:41:27.232Z,153449.72
2019-03-24T11:43:55.705Z,153489.27
2019-03-24T11:46:24.216Z,153374.66
2019-03-24T11:48:52.715Z,153300.91
2019-03-24T11:51:21.191Z,153303.53
2019-03-24T11:53:49.673Z,153257.41
2019-03-24T11:56:18.158Z,153285.08
2019-03-24T11:58:46.730Z,153265.33
2019-03-24T12:01:15.387Z,153191.56
2019-03-24T12:03:43.925Z,153290.38
2019-03-24T12:06:14.704Z,153181.03
2019-03-24T12:08:42.635Z,153211.31
2019-03-24T12:11:11.099Z,153173.16
2019-03-24T12:13:39.600Z,153191.56
2019-03-24T12:16:08.086Z,153250.81
2019-03-24T12:18:36.801Z,153215.28
2019-03-24T12:21:05.278Z,153182.37
2019-03-24T12:23:33.847Z,153227.13
2019-03-24T12:26:02.401Z,153112.61
2019-03-24T12:28:30.912Z,153106.02
2019-03-24T12:30:59.389Z,153237.66
2019-03-24T12:33:27.903Z,153204.75
2019-03-24T12:35:56.387Z,153152.11
2019-03-24T12:38:24.868Z,153204.75
2019-03-24T12:40:53.359Z,153190.25
2019-03-24T12:43:21.837Z,153191.56
2019-03-24T12:45:50.420Z,153220.53
2019-03-24T12:48:18.989Z,153119.16
2019-03-24T12:50:47.478Z,153146.81
2019-03-24T12:53:15.958Z,153159.97
2019-03-24T12:55:44.448Z,153132.36
2019-03-24T12:58:12.915Z,153063.91
2019-03-24T13:00:41.757Z,153090.25
2019-03-24T13:03:11.603Z,153062.59
2019-03-24T13:05:40.232Z,153115.22
2019-03-24T13:08:16.719Z,153128.37
2019-03-24T13:10:45.970Z,153090.25
2019-03-24T13:13:15.873Z,153108.63
2019-03-24T13:15:44.464Z,153057.31
2019-03-24T13:18:12.966Z,153011.28
2019-03-24T13:20:41.658Z,153028.41
2019-03-24T13:23:10.403Z,153031.02
2019-03-24T13:25:38.918Z,152978.41
2019-03-24T13:28:07.394Z,152928.36
2019-03-24T13:30:35.897Z,152991.53
2019-03-24T13:33:04.516Z,153133.66
2019-03-24T13:35:32.997Z,153044.16
2019-03-24T13:38:01.496Z,152930.97
2019-03-24T13:40:30.026Z,152928.36
2019-03-24T13:42:58.538Z,152959.97
2019-03-24T13:45:27.039Z,153027.09
2019-03-24T13:47:55.525Z,153049.45
2019-03-24T13:50:31.377Z,152944.16
2019-03-24T13:52:54.238Z,152970.50
2019-03-24T13:55:22.916Z,152986.31
2019-03-24T13:57:51.494Z,152986.31
2019-03-24T14:00:20.954Z,152974.42
2019-03-24T14:02:49.439Z,152891.50
2019-03-24T14:05:17.961Z,152954.73
2019-03-24T14:07:46.463Z,152973.11
2019-03-24T14:10:14.980Z,152988.92
2019-03-24T14:12:43.520Z,153009.97
2019-03-24T14:15:12.343Z,153009.97
2019-03-24T14:17:40.768Z,152995.47
2019-03-24T14:20:09.520Z,152995.47
2019-03-24T14:22:38.014Z,153019.19
2019-03-24T14:25:08.159Z,153025.73
2019-03-24T14:27:36.633Z,152944.16
2019-03-24T14:30:08.729Z,152938.87
2019-03-24T14:32:37.213Z,152862.61
2019-03-24T14:35:06.652Z,152862.61
2019-03-24T14:37:35.167Z,152862.61
2019-03-24T14:40:05.678Z,152840.27
2019-03-24T14:42:34.203Z,152880.98
2019-03-24T14:45:02.680Z,152837.59
2019-03-24T14:47:31.176Z,152817.88
2019-03-24T14:49:59.645Z,152803.42
2019-03-24T14:52:28.158Z,152798.14
2019-03-24T14:54:56.640Z,152741.63
2019-03-24T14:57:25.144Z,152741.63
2019-03-24T14:59:53.625Z,152783.69
2019-03-24T15:02:22.114Z,152779.78
2019-03-24T15:04:50.592Z,152744.25
2019-03-24T15:07:19.104Z,152708.78
2019-03-24T15:09:47.578Z,152683.78
2019-03-24T15:12:16.086Z,152640.42
2019-03-24T15:14:44.562Z,152641.72
2019-03-24T15:17:13.147Z,152644.39
2019-03-24T15:19:41.630Z,152628.59
2019-03-24T15:22:10.143Z,152623.37
2019-03-24T15:24:38.619Z,152614.17
2019-03-24T15:27:07.178Z,152602.34
2019-03-24T15:29:35.664Z,152548.39
2019-03-24T15:32:04.151Z,152549.69
2019-03-24T15:34:32.627Z,152560.20
2019-03-24T15:37:01.141Z,152510.33
2019-03-24T15:39:29.626Z,152484.03
2019-03-24T15:41:58.119Z,152487.95
2019-03-24T15:44:26.600Z,152470.91
2019-03-24T15:46:55.092Z,152481.42
2019-03-24T15:49:23.562Z,152474.84
2019-03-24T15:51:52.052Z,152444.63
2019-03-24T15:54:20.529Z,152502.44
2019-03-24T15:56:49.041Z,152493.23
2019-03-24T15:59:17.572Z,152487.95
2019-03-24T16:01:46.071Z,152447.28
2019-03-24T16:04:14.552Z,152427.59
2019-03-24T16:06:43.043Z,152397.38
2019-03-24T16:09:11.549Z,152394.72
2019-03-24T16:11:40.037Z,152413.11
2019-03-24T16:14:08.542Z,152405.22
2019-03-24T16:16:37.035Z,152373.72
2019-03-24T16:19:05.537Z,152371.09
2019-03-24T16:21:34.013Z,152334.36
2019-03-24T16:24:02.511Z,152350.09
2019-03-24T16:26:31.008Z,152350.09
2019-03-24T16:28:59.541Z,152305.47
2019-03-24T16:31:28.010Z,152305.47
2019-03-24T16:33:56.507Z,152305.47
2019-03-24T16:36:24.987Z,152276.58
2019-03-24T16:39:03.155Z,152246.39
2019-03-24T16:41:23.690Z,152266.08
2019-03-24T16:43:52.200Z,152279.19
2019-03-24T16:46:20.681Z,152279.19
2019-03-24T16:48:49.191Z,152268.69
2019-03-24T16:51:17.663Z,152279.19
2019-03-24T16:53:46.210Z,152263.47
2019-03-24T16:56:14.675Z,152254.28
2019-03-24T16:58:43.184Z,152249.00
2019-03-24T17:01:11.671Z,152226.70
2019-03-24T17:03:40.163Z,152209.67
2019-03-24T17:06:10.162Z,152209.67
2019-03-24T17:08:38.825Z,152171.56
2019-03-24T17:11:07.287Z,152166.28
2019-03-24T17:13:35.790Z,152133.48
2019-03-24T17:16:23.657Z,152142.67
2019-03-24T17:18:52.180Z,152155.78
2019-03-24T17:21:20.636Z,152147.95
2019-03-24T17:23:49.219Z,152126.95
2019-03-24T17:26:17.693Z,152096.78
2019-03-24T17:28:47.084Z,152092.81
2019-03-24T17:31:15.742Z,152050.84
2019-03-24T17:33:44.246Z,152057.42
2019-03-24T17:36:12.746Z,152056.12
2019-03-24T17:38:41.223Z,152014.16
2019-03-24T17:41:09.707Z,152006.27
2019-03-24T17:43:38.196Z,152006.27
2019-03-24T17:46:06.679Z,151987.91
2019-03-24T17:48:35.187Z,151968.22
2019-03-24T17:51:03.725Z,151987.91
2019-03-24T17:53:32.221Z,151981.33
2019-03-24T17:56:00.682Z,151969.53
2019-03-24T17:58:29.183Z,151964.31
2019-03-24T18:00:58.025Z,151966.92
2019-03-24T18:03:26.538Z,151974.80
2019-03-24T18:05:55.000Z,151969.53
2019-03-24T18:08:23.511Z,151964.31
2019-03-24T18:10:51.988Z,151953.81
2019-03-24T18:13:20.466Z,151927.58
2019-03-24T18:15:48.956Z,151919.75
2019-03-24T18:18:17.459Z,151904.00
2019-03-24T18:20:45.928Z,151897.42
2019-03-24T18:23:14.409Z,151890.91
2019-03-24T18:25:42.927Z,151890.91
2019-03-24T18:28:11.390Z,151888.23
2019-03-24T18:30:39.889Z,151875.14
2019-03-24T18:33:08.422Z,151869.92
2019-03-24T18:35:36.922Z,151860.75
2019-03-24T18:38:05.771Z,151848.95
2019-03-24T18:40:34.331Z,151835.81
2019-03-24T18:43:02.878Z,151835.81
2019-03-24T18:45:31.376Z,151825.33
2019-03-24T18:47:59.856Z,151818.80
2019-03-24T18:50:28.354Z,151804.36
2019-03-24T18:52:56.915Z,151795.19
2019-03-24T18:55:25.489Z,151786.05
2019-03-24T18:57:53.970Z,151783.39
2019-03-24T19:00:22.613Z,151758.52
2019-03-24T19:02:51.089Z,151736.25
2019-03-24T19:05:19.584Z,151732.28
2019-03-24T19:07:48.135Z,151744.12
2019-03-24T19:10:17.128Z,151707.41
2019-03-24T19:12:45.731Z,151678.53
2019-03-24T19:15:16.248Z,151675.92
2019-03-24T19:17:45.071Z,151696.88
2019-03-24T19:20:14.093Z,151690.31
2019-03-24T19:22:42.714Z,151666.75
2019-03-24T19:25:11.571Z,151657.58
2019-03-24T19:27:40.242Z,151649.70
2019-03-24T19:30:11.784Z,151644.48
2019-03-24T19:32:40.322Z,151635.31
2019-03-24T19:35:09.372Z,151631.41
2019-03-24T19:37:38.082Z,151623.53
2019-03-24T19:40:09.624Z,151607.80
2019-03-24T19:42:38.101Z,151592.09
2019-03-24T19:45:06.955Z,151573.75
2019-03-24T19:47:35.436Z,151571.16
2019-03-24T19:50:05.691Z,151559.37
2019-03-24T19:52:44.348Z,151551.50
2019-03-24T19:55:06.507Z,151542.33
2019-03-24T19:57:34.971Z,151521.37
2019-03-24T20:00:04.122Z,151518.78
2019-03-24T20:02:32.586Z,151500.44
2019-03-24T20:05:01.103Z,151504.34
2019-03-24T20:07:29.580Z,151484.70
2019-03-24T20:09:58.052Z,151484.70
2019-03-24T20:12:26.563Z,151470.33
2019-03-24T20:14:55.008Z,151466.42
2019-03-24T20:17:23.504Z,151450.69
2019-03-24T20:19:51.972Z,151432.34
2019-03-24T20:22:20.481Z,151411.41
2019-03-24T20:24:48.973Z,151398.34
2019-03-24T20:27:17.467Z,151393.08
2019-03-24T20:29:45.947Z,151377.41
2019-03-24T20:32:14.433Z,151380.00
2019-03-24T20:34:42.913Z,151356.47
2019-03-24T20:37:11.413Z,151351.20
2019-03-24T20:39:39.876Z,151344.69
2019-03-24T20:42:08.413Z,151330.27
2019-03-24T20:44:36.997Z,151338.12
2019-03-24T20:47:05.564Z,151305.44
2019-03-24T20:49:34.043Z,151308.03
2019-03-24T20:52:02.546Z,151293.66
2019-03-24T20:54:31.032Z,151270.12
2019-03-24T20:56:59.530Z,151268.78
2019-03-24T20:59:28.007Z,151246.55
2019-03-24T21:01:56.583Z,151225.62
2019-03-24T21:04:25.123Z,151220.41
2019-03-24T21:06:53.640Z,151212.56
2019-03-24T21:09:22.125Z,151209.95
2019-03-24T21:11:50.625Z,151209.95
2019-03-24T21:14:19.166Z,151211.25
2019-03-24T21:16:47.686Z,151187.72
2019-03-24T21:19:16.165Z,151170.70
2019-03-24T21:21:44.652Z,151164.14
2019-03-24T21:24:13.123Z,151151.09
2019-03-24T21:26:41.605Z,151143.22
2019-03-24T21:29:10.071Z,151126.27
2019-03-24T21:31:38.575Z,151123.61
2019-03-24T21:34:07.059Z,151113.16
2019-03-24T21:36:35.538Z,151123.61
2019-03-24T21:39:05.926Z,151111.84
2019-03-24T21:41:34.445Z,151115.80
2019-03-24T21:44:02.923Z,151097.48
2019-03-24T21:46:31.404Z,151094.87
2019-03-24T21:48:59.896Z,151071.27
2019-03-24T21:51:28.433Z,151077.87
2019-03-24T21:53:56.912Z,151079.17
2019-03-24T21:56:25.392Z,151075.22
2019-03-24T21:58:53.897Z,151076.56
2019-03-24T22:01:22.452Z,151073.92
2019-03-24T22:03:50.949Z,151080.47
2019-03-24T22:06:19.420Z,151079.17
2019-03-24T22:08:47.917Z,151073.92
2019-03-24T22:11:16.395Z,151073.92
2019-03-24T22:13:44.921Z,151073.92
2019-03-24T22:16:13.561Z,151069.97
2019-03-24T22:18:42.058Z,151071.27
2019-03-24T22:21:10.523Z,151067.36
2019-03-24T22:23:39.030Z,151071.27
2019-03-24T22:26:07.505Z,151073.92
2019-03-24T22:28:36.010Z,151064.75
2019-03-24T22:31:04.490Z,151068.66
2019-03-24T22:33:32.979Z,151064.75
2019-03-24T22:36:01.522Z,151058.20
2019-03-24T22:38:30.632Z,151056.91
2019-03-24T22:40:59.111Z,151047.75
2019-03-24T22:43:27.640Z,151036.00
2019-03-24T22:45:56.096Z,151036.00
2019-03-24T22:48:24.579Z,151024.23
2019-03-24T22:50:53.063Z,151013.78
2019-03-24T22:53:21.567Z,151026.84
2019-03-24T22:55:50.030Z,151002.03
2019-03-24T22:58:18.532Z,151015.08
2019-03-24T23:00:54.466Z,151024.23
2019-03-24T23:03:25.129Z,151013.78
2019-03-24T23:05:53.895Z,151029.44
2019-03-24T23:08:22.413Z,151032.03
2019-03-24T23:10:50.894Z,151011.13
2019-03-24T23:13:19.382Z,151012.48
2019-03-24T23:15:47.861Z,151033.39
2019-03-24T23:18:16.356Z,151021.59
2019-03-24T23:20:44.826Z,151038.59
2019-03-24T23:23:13.336Z,151025.53
2019-03-24T23:25:41.800Z,151030.73
2019-03-24T23:28:10.370Z,151052.95
2019-03-24T23:30:38.876Z,151047.75
2019-03-24T23:33:07.384Z,151050.34
2019-03-24T23:35:35.929Z,151051.66
2019-03-24T23:38:04.600Z,151034.69
2019-03-24T23:40:33.087Z,151029.44
2019-03-24T23:43:01.613Z,151033.39
2019-03-24T23:45:30.083Z,151028.14
2019-03-24T23:47:58.571Z,151046.44
2019-03-24T23:50:27.093Z,151029.44
2019-03-24T23:52:55.639Z,151029.44
2019-03-24T23:55:24.135Z,151016.37
2019-03-24T23:57:52.608Z,151052.95
